sensor_id;sensor_type;location;lat;lon;timestamp;P1;durP1;ratioP1;P2;durP2;ratioP2
39016;SDS011;24784;45.582;5.276;2023-10-19T00:01:55;12.98;;;3.83;;
39016;SDS011;24784;45.582;5.276;2023-10-19T00:04:23;10.38;;;3.88;;
39016;SDS011;24784;45.582;5.276;2023-10-19T00:06:56;9.47;;;3.30;;
39016;SDS011;24784;45.582;5.276;2023-10-19T00:09:22;11.02;;;4.03;;
39016;SDS011;24784;45.582;5.276;2023-10-19T00:11:48;4.80;;;2.88;;
39016;SDS011;24784;45.582;5.276;2023-10-19T00:14:17;8.15;;;3.30;;
39016;SDS011;24784;45.582;5.276;2023-10-19T00:16:43;4.15;;;2.50;;
39016;SDS011;24784;45.582;5.276;2023-10-19T00:19:18;7.57;;;3.25;;
39016;SDS011;24784;45.582;5.276;2023-10-19T00:21:46;5.25;;;2.28;;
39016;SDS011;24784;45.582;5.276;2023-10-19T00:24:16;8.68;;;1.77;;
39016;SDS011;24784;45.582;5.276;2023-10-19T00:26:45;5.50;;;1.73;;
39016;SDS011;24784;45.582;5.276;2023-10-19T00:29:13;7.00;;;1.30;;
39016;SDS011;24784;45.582;5.276;2023-10-19T00:31:57;8.55;;;1.42;;
39016;SDS011;24784;45.582;5.276;2023-10-19T00:34:24;7.22;;;1.40;;
39016;SDS011;24784;45.582;5.276;2023-10-19T00:36:51;4.30;;;1.30;;
39016;SDS011;24784;45.582;5.276;2023-10-19T00:39:17;8.80;;;1.10;;
39016;SDS011;24784;45.582;5.276;2023-10-19T00:41:46;9.52;;;1.90;;
39016;SDS011;24784;45.582;5.276;2023-10-19T00:44:13;6.85;;;1.17;;
39016;SDS011;24784;45.582;5.276;2023-10-19T00:46:47;4.13;;;0.82;;
39016;SDS011;24784;45.582;5.276;2023-10-19T00:49:18;2.47;;;0.80;;
39016;SDS011;24784;45.582;5.276;2023-10-19T00:51:48;4.40;;;0.93;;
39016;SDS011;24784;45.582;5.276;2023-10-19T00:57:01;4.55;;;1.00;;
39016;SDS011;24784;45.582;5.276;2023-10-19T00:59:31;2.42;;;0.90;;
39016;SDS011;24784;45.582;5.276;2023-10-19T01:02:00;4.22;;;1.02;;
39016;SDS011;24784;45.582;5.276;2023-10-19T01:04:47;4.25;;;0.82;;
39016;SDS011;24784;45.582;5.276;2023-10-19T01:07:30;4.00;;;0.90;;
39016;SDS011;24784;45.582;5.276;2023-10-19T01:10:02;4.43;;;0.90;;
39016;SDS011;24784;45.582;5.276;2023-10-19T01:12:37;4.78;;;0.90;;
39016;SDS011;24784;45.582;5.276;2023-10-19T01:17:38;3.67;;;0.85;;
39016;SDS011;24784;45.582;5.276;2023-10-19T02:44:49;1.40;;;1.10;;
39016;SDS011;24784;45.582;5.276;2023-10-19T02:47:15;2.05;;;1.23;;
39016;SDS011;24784;45.582;5.276;2023-10-19T02:49:42;6.22;;;1.20;;
39016;SDS011;24784;45.582;5.276;2023-10-19T02:52:15;2.80;;;1.77;;
39016;SDS011;24784;45.582;5.276;2023-10-19T02:54:41;3.20;;;1.15;;
39016;SDS011;24784;45.582;5.276;2023-10-19T02:57:07;9.38;;;1.63;;
39016;SDS011;24784;45.582;5.276;2023-10-19T02:59:34;5.05;;;1.42;;
39016;SDS011;24784;45.582;5.276;2023-10-19T03:02:01;2.20;;;1.38;;
39016;SDS011;24784;45.582;5.276;2023-10-19T03:04:36;3.50;;;1.40;;
39016;SDS011;24784;45.582;5.276;2023-10-19T03:07:02;4.38;;;1.58;;
39016;SDS011;24784;45.582;5.276;2023-10-19T03:09:29;4.30;;;1.73;;
39016;SDS011;24784;45.582;5.276;2023-10-19T03:11:55;2.80;;;1.88;;
39016;SDS011;24784;45.582;5.276;2023-10-19T03:14:25;3.75;;;1.70;;
39016;SDS011;24784;45.582;5.276;2023-10-19T03:16:51;5.57;;;2.05;;
39016;SDS011;24784;45.582;5.276;2023-10-19T03:19:17;9.07;;;2.50;;
39016;SDS011;24784;45.582;5.276;2023-10-19T03:21:43;10.75;;;2.38;;
39016;SDS011;24784;45.582;5.276;2023-10-19T03:24:09;12.40;;;2.80;;
39016;SDS011;24784;45.582;5.276;2023-10-19T03:26:40;8.05;;;2.92;;
39016;SDS011;24784;45.582;5.276;2023-10-19T03:29:13;7.25;;;3.35;;
39016;SDS011;24784;45.582;5.276;2023-10-19T03:31:40;7.38;;;4.07;;
39016;SDS011;24784;45.582;5.276;2023-10-19T03:34:09;8.40;;;4.80;;
39016;SDS011;24784;45.582;5.276;2023-10-19T03:36:38;12.85;;;5.63;;
39016;SDS011;24784;45.582;5.276;2023-10-19T03:39:04;8.23;;;4.78;;
39016;SDS011;24784;45.582;5.276;2023-10-19T03:41:42;9.07;;;5.47;;
39016;SDS011;24784;45.582;5.276;2023-10-19T03:44:09;18.08;;;5.85;;
39016;SDS011;24784;45.582;5.276;2023-10-19T03:46:44;9.13;;;5.25;;
39016;SDS011;24784;45.582;5.276;2023-10-19T03:49:22;9.30;;;5.70;;
39016;SDS011;24784;45.582;5.276;2023-10-19T03:51:51;8.60;;;5.00;;
39016;SDS011;24784;45.582;5.276;2023-10-19T03:54:27;9.75;;;5.05;;
39016;SDS011;24784;45.582;5.276;2023-10-19T03:56:53;9.27;;;5.35;;
39016;SDS011;24784;45.582;5.276;2023-10-19T03:59:22;8.15;;;5.03;;
39016;SDS011;24784;45.582;5.276;2023-10-19T04:01:48;7.97;;;5.25;;
39016;SDS011;24784;45.582;5.276;2023-10-19T04:04:14;10.68;;;4.97;;
39016;SDS011;24784;45.582;5.276;2023-10-19T04:06:41;7.75;;;5.18;;
39016;SDS011;24784;45.582;5.276;2023-10-19T04:09:12;13.88;;;4.93;;
39016;SDS011;24784;45.582;5.276;2023-10-19T04:11:42;7.55;;;4.90;;
39016;SDS011;24784;45.582;5.276;2023-10-19T04:14:14;7.57;;;5.10;;
39016;SDS011;24784;45.582;5.276;2023-10-19T04:16:41;8.63;;;4.70;;
39016;SDS011;24784;45.582;5.276;2023-10-19T04:19:10;10.80;;;4.97;;
39016;SDS011;24784;45.582;5.276;2023-10-19T04:21:36;5.65;;;3.88;;
39016;SDS011;24784;45.582;5.276;2023-10-19T04:24:05;4.78;;;3.60;;
39016;SDS011;24784;45.582;5.276;2023-10-19T04:26:32;6.88;;;4.43;;
39016;SDS011;24784;45.582;5.276;2023-10-19T04:29:04;7.78;;;4.18;;
39016;SDS011;24784;45.582;5.276;2023-10-19T04:31:42;7.90;;;3.90;;
39016;SDS011;24784;45.582;5.276;2023-10-19T04:34:20;10.65;;;3.40;;
39016;SDS011;24784;45.582;5.276;2023-10-19T04:36:50;10.35;;;3.85;;
39016;SDS011;24784;45.582;5.276;2023-10-19T04:39:17;9.63;;;3.92;;
39016;SDS011;24784;45.582;5.276;2023-10-19T04:41:46;4.10;;;3.22;;
39016;SDS011;24784;45.582;5.276;2023-10-19T04:44:14;6.38;;;3.55;;
39016;SDS011;24784;45.582;5.276;2023-10-19T04:46:40;6.65;;;3.63;;
39016;SDS011;24784;45.582;5.276;2023-10-19T04:49:07;5.95;;;3.80;;
39016;SDS011;24784;45.582;5.276;2023-10-19T04:51:33;12.88;;;3.88;;
39016;SDS011;24784;45.582;5.276;2023-10-19T04:54:02;9.20;;;3.08;;
39016;SDS011;24784;45.582;5.276;2023-10-19T04:56:27;8.07;;;3.13;;
39016;SDS011;24784;45.582;5.276;2023-10-19T04:58:53;7.18;;;3.63;;
39016;SDS011;24784;45.582;5.276;2023-10-19T05:01:18;5.88;;;2.80;;
39016;SDS011;24784;45.582;5.276;2023-10-19T05:03:44;6.68;;;3.33;;
39016;SDS011;24784;45.582;5.276;2023-10-19T05:06:10;6.15;;;3.55;;
39016;SDS011;24784;45.582;5.276;2023-10-19T05:08:37;7.97;;;3.92;;
39016;SDS011;24784;45.582;5.276;2023-10-19T05:11:03;9.23;;;4.07;;
39016;SDS011;24784;45.582;5.276;2023-10-19T05:13:30;4.35;;;2.78;;
39016;SDS011;24784;45.582;5.276;2023-10-19T05:15:57;4.63;;;3.13;;
39016;SDS011;24784;45.582;5.276;2023-10-19T05:18:26;6.65;;;2.85;;
39016;SDS011;24784;45.582;5.276;2023-10-19T05:20:52;5.03;;;2.50;;
39016;SDS011;24784;45.582;5.276;2023-10-19T05:23:24;10.90;;;3.00;;
39016;SDS011;24784;45.582;5.276;2023-10-19T05:25:51;4.63;;;2.50;;
39016;SDS011;24784;45.582;5.276;2023-10-19T05:28:34;5.65;;;2.20;;
39016;SDS011;24784;45.582;5.276;2023-10-19T05:31:00;5.65;;;2.15;;
39016;SDS011;24784;45.582;5.276;2023-10-19T05:33:28;3.72;;;2.10;;
39016;SDS011;24784;45.582;5.276;2023-10-19T05:35:54;5.78;;;2.63;;
39016;SDS011;24784;45.582;5.276;2023-10-19T05:38:20;4.63;;;2.80;;
39016;SDS011;24784;45.582;5.276;2023-10-19T05:40:47;4.03;;;2.40;;
39016;SDS011;24784;45.582;5.276;2023-10-19T05:43:14;3.90;;;2.90;;
39016;SDS011;24784;45.582;5.276;2023-10-19T05:45:41;6.78;;;3.25;;
39016;SDS011;24784;45.582;5.276;2023-10-19T05:48:07;11.13;;;4.20;;
39016;SDS011;24784;45.582;5.276;2023-10-19T05:50:35;11.45;;;4.70;;
39016;SDS011;24784;45.582;5.276;2023-10-19T05:53:04;7.80;;;6.15;;
39016;SDS011;24784;45.582;5.276;2023-10-19T05:55:30;12.00;;;8.40;;
39016;SDS011;24784;45.582;5.276;2023-10-19T05:57:56;11.68;;;8.30;;
39016;SDS011;24784;45.582;5.276;2023-10-19T06:00:22;14.07;;;7.28;;
39016;SDS011;24784;45.582;5.276;2023-10-19T06:02:50;16.50;;;8.05;;
39016;SDS011;24784;45.582;5.276;2023-10-19T06:05:17;21.25;;;7.47;;
39016;SDS011;24784;45.582;5.276;2023-10-19T06:07:44;13.27;;;8.48;;
39016;SDS011;24784;45.582;5.276;2023-10-19T06:10:11;11.27;;;7.43;;
39016;SDS011;24784;45.582;5.276;2023-10-19T06:12:44;10.80;;;7.07;;
39016;SDS011;24784;45.582;5.276;2023-10-19T06:15:11;12.07;;;8.13;;
39016;SDS011;24784;45.582;5.276;2023-10-19T06:17:38;11.85;;;7.47;;
39016;SDS011;24784;45.582;5.276;2023-10-19T06:20:06;11.07;;;7.00;;
39016;SDS011;24784;45.582;5.276;2023-10-19T06:22:36;12.57;;;7.30;;
39016;SDS011;24784;45.582;5.276;2023-10-19T06:25:02;12.13;;;6.78;;
39016;SDS011;24784;45.582;5.276;2023-10-19T06:27:31;13.73;;;7.60;;
39016;SDS011;24784;45.582;5.276;2023-10-19T06:29:57;15.07;;;8.60;;
39016;SDS011;24784;45.582;5.276;2023-10-19T06:32:23;12.93;;;8.18;;
39016;SDS011;24784;45.582;5.276;2023-10-19T06:34:48;15.88;;;9.10;;
39016;SDS011;24784;45.582;5.276;2023-10-19T06:37:15;16.25;;;7.43;;
39016;SDS011;24784;45.582;5.276;2023-10-19T06:39:40;15.15;;;7.13;;
39016;SDS011;24784;45.582;5.276;2023-10-19T06:42:09;13.10;;;8.45;;
39016;SDS011;24784;45.582;5.276;2023-10-19T06:44:38;13.52;;;8.13;;
39016;SDS011;24784;45.582;5.276;2023-10-19T06:54:26;17.33;;;7.30;;
39016;SDS011;24784;45.582;5.276;2023-10-19T06:56:53;13.93;;;8.05;;
39016;SDS011;24784;45.582;5.276;2023-10-19T06:59:18;14.20;;;7.70;;
39016;SDS011;24784;45.582;5.276;2023-10-19T07:01:44;18.67;;;8.57;;
39016;SDS011;24784;45.582;5.276;2023-10-19T07:04:11;14.30;;;8.77;;
39016;SDS011;24784;45.582;5.276;2023-10-19T07:06:38;13.88;;;8.27;;
39016;SDS011;24784;45.582;5.276;2023-10-19T07:09:04;18.05;;;8.63;;
39016;SDS011;24784;45.582;5.276;2023-10-19T07:11:31;13.65;;;8.45;;
39016;SDS011;24784;45.582;5.276;2023-10-19T07:13:58;15.50;;;7.72;;
39016;SDS011;24784;45.582;5.276;2023-10-19T07:16:25;19.63;;;7.80;;
39016;SDS011;24784;45.582;5.276;2023-10-19T07:18:51;13.02;;;6.70;;
39016;SDS011;24784;45.582;5.276;2023-10-19T07:21:18;8.77;;;5.97;;
39016;SDS011;24784;45.582;5.276;2023-10-19T07:23:44;11.70;;;5.82;;
39016;SDS011;24784;45.582;5.276;2023-10-19T07:26:10;13.57;;;5.15;;
39016;SDS011;24784;45.582;5.276;2023-10-19T07:28:39;13.02;;;6.18;;
39016;SDS011;24784;45.582;5.276;2023-10-19T07:31:05;9.45;;;5.50;;
39016;SDS011;24784;45.582;5.276;2023-10-19T07:33:37;9.90;;;4.65;;
39016;SDS011;24784;45.582;5.276;2023-10-19T07:36:11;6.45;;;5.38;;
39016;SDS011;24784;45.582;5.276;2023-10-19T07:38:39;11.77;;;5.00;;
39016;SDS011;24784;45.582;5.276;2023-10-19T07:41:05;9.38;;;5.50;;
39016;SDS011;24784;45.582;5.276;2023-10-19T07:43:31;9.35;;;5.03;;
39016;SDS011;24784;45.582;5.276;2023-10-19T07:45:56;6.80;;;4.80;;
39016;SDS011;24784;45.582;5.276;2023-10-19T07:59:58;9.50;;;4.95;;
39016;SDS011;24784;45.582;5.276;2023-10-19T08:02:24;7.90;;;4.82;;
39016;SDS011;24784;45.582;5.276;2023-10-19T08:04:50;11.25;;;4.82;;
39016;SDS011;24784;45.582;5.276;2023-10-19T08:07:17;9.73;;;4.55;;
39016;SDS011;24784;45.582;5.276;2023-10-19T08:09:43;10.38;;;5.10;;
39016;SDS011;24784;45.582;5.276;2023-10-19T08:12:09;13.35;;;5.18;;
39016;SDS011;24784;45.582;5.276;2023-10-19T08:14:39;9.13;;;5.50;;
39016;SDS011;24784;45.582;5.276;2023-10-19T08:17:05;7.93;;;5.00;;
39016;SDS011;24784;45.582;5.276;2023-10-19T08:19:33;7.78;;;5.65;;
39016;SDS011;24784;45.582;5.276;2023-10-19T08:22:00;7.15;;;5.38;;
39016;SDS011;24784;45.582;5.276;2023-10-19T08:24:26;10.77;;;5.78;;
39016;SDS011;24784;45.582;5.276;2023-10-19T08:26:55;11.95;;;7.18;;
39016;SDS011;24784;45.582;5.276;2023-10-19T08:29:21;11.93;;;7.60;;
39016;SDS011;24784;45.582;5.276;2023-10-19T08:31:49;11.10;;;7.50;;
39016;SDS011;24784;45.582;5.276;2023-10-19T08:34:15;12.50;;;7.57;;
39016;SDS011;24784;45.582;5.276;2023-10-19T08:41:35;39.33;;;7.28;;
39016;SDS011;24784;45.582;5.276;2023-10-19T08:44:03;10.40;;;6.82;;
39016;SDS011;24784;45.582;5.276;2023-10-19T08:46:40;13.27;;;5.85;;
39016;SDS011;24784;45.582;5.276;2023-10-19T08:49:14;7.65;;;5.97;;
39016;SDS011;24784;45.582;5.276;2023-10-19T08:51:43;13.88;;;6.13;;
39016;SDS011;24784;45.582;5.276;2023-10-19T08:54:13;11.98;;;6.32;;
39016;SDS011;24784;45.582;5.276;2023-10-19T08:56:40;9.25;;;6.00;;
39016;SDS011;24784;45.582;5.276;2023-10-19T08:59:07;16.35;;;6.38;;
39016;SDS011;24784;45.582;5.276;2023-10-19T09:01:33;11.30;;;7.13;;
39016;SDS011;24784;45.582;5.276;2023-10-19T09:04:00;9.88;;;5.13;;
39016;SDS011;24784;45.582;5.276;2023-10-19T09:06:27;7.32;;;4.93;;
39016;SDS011;24784;45.582;5.276;2023-10-19T09:08:54;8.10;;;5.85;;
39016;SDS011;24784;45.582;5.276;2023-10-19T09:11:22;15.77;;;6.32;;
39016;SDS011;24784;45.582;5.276;2023-10-19T09:13:50;12.65;;;6.50;;
39016;SDS011;24784;45.582;5.276;2023-10-19T09:16:18;12.40;;;6.45;;
39016;SDS011;24784;45.582;5.276;2023-10-19T09:18:48;11.60;;;6.63;;
39016;SDS011;24784;45.582;5.276;2023-10-19T09:21:16;8.77;;;6.32;;
39016;SDS011;24784;45.582;5.276;2023-10-19T09:23:54;8.25;;;6.53;;
39016;SDS011;24784;45.582;5.276;2023-10-19T09:26:22;9.02;;;5.88;;
39016;SDS011;24784;45.582;5.276;2023-10-19T09:28:49;9.50;;;6.47;;
39016;SDS011;24784;45.582;5.276;2023-10-19T09:31:16;10.85;;;7.25;;
39016;SDS011;24784;45.582;5.276;2023-10-19T09:33:45;9.73;;;8.13;;
39016;SDS011;24784;45.582;5.276;2023-10-19T09:36:13;11.82;;;8.68;;
39016;SDS011;24784;45.582;5.276;2023-10-19T09:38:49;15.27;;;10.13;;
39016;SDS011;24784;45.582;5.276;2023-10-19T09:41:21;16.33;;;9.52;;
39016;SDS011;24784;45.582;5.276;2023-10-19T09:43:48;17.63;;;9.35;;
39016;SDS011;24784;45.582;5.276;2023-10-19T09:46:20;12.32;;;8.40;;
39016;SDS011;24784;45.582;5.276;2023-10-19T09:48:56;12.05;;;9.20;;
39016;SDS011;24784;45.582;5.276;2023-10-19T09:51:22;13.57;;;8.57;;
39016;SDS011;24784;45.582;5.276;2023-10-19T09:53:51;11.63;;;8.75;;
39016;SDS011;24784;45.582;5.276;2023-10-19T09:56:36;13.60;;;8.05;;
39016;SDS011;24784;45.582;5.276;2023-10-19T09:59:06;12.75;;;8.10;;
39016;SDS011;24784;45.582;5.276;2023-10-19T10:04:36;14.50;;;7.40;;
39016;SDS011;24784;45.582;5.276;2023-10-19T10:07:04;9.60;;;7.38;;
39016;SDS011;24784;45.582;5.276;2023-10-19T10:09:31;12.48;;;6.07;;
39016;SDS011;24784;45.582;5.276;2023-10-19T10:14:54;6.47;;;5.75;;
39016;SDS011;24784;45.582;5.276;2023-10-19T10:17:22;8.75;;;6.22;;
39016;SDS011;24784;45.582;5.276;2023-10-19T10:19:50;10.82;;;6.15;;
39016;SDS011;24784;45.582;5.276;2023-10-19T10:22:21;7.65;;;6.28;;
39016;SDS011;24784;45.582;5.276;2023-10-19T10:24:46;8.00;;;6.65;;
39016;SDS011;24784;45.582;5.276;2023-10-19T10:27:18;11.30;;;6.63;;
39016;SDS011;24784;45.582;5.276;2023-10-19T10:29:57;10.65;;;6.57;;
39016;SDS011;24784;45.582;5.276;2023-10-19T10:35:09;7.95;;;5.45;;
39016;SDS011;24784;45.582;5.276;2023-10-19T10:37:37;6.40;;;4.80;;
39016;SDS011;24784;45.582;5.276;2023-10-19T10:40:05;9.15;;;5.70;;
39016;SDS011;24784;45.582;5.276;2023-10-19T10:42:31;7.15;;;5.60;;
39016;SDS011;24784;45.582;5.276;2023-10-19T10:44:57;7.22;;;5.30;;
39016;SDS011;24784;45.582;5.276;2023-10-19T10:47:23;8.65;;;4.97;;
39016;SDS011;24784;45.582;5.276;2023-10-19T10:49:55;5.75;;;4.53;;
39016;SDS011;24784;45.582;5.276;2023-10-19T10:52:23;6.85;;;4.82;;
39016;SDS011;24784;45.582;5.276;2023-10-19T10:54:50;8.05;;;5.57;;
39016;SDS011;24784;45.582;5.276;2023-10-19T10:57:15;6.80;;;5.18;;
39016;SDS011;24784;45.582;5.276;2023-10-19T10:59:41;9.93;;;5.60;;
39016;SDS011;24784;45.582;5.276;2023-10-19T11:02:16;10.27;;;6.30;;
39016;SDS011;24784;45.582;5.276;2023-10-19T11:04:43;9.50;;;5.70;;
39016;SDS011;24784;45.582;5.276;2023-10-19T11:07:18;8.05;;;6.13;;
39016;SDS011;24784;45.582;5.276;2023-10-19T11:09:47;8.52;;;5.78;;
39016;SDS011;24784;45.582;5.276;2023-10-19T11:12:14;7.47;;;6.05;;
39016;SDS011;24784;45.582;5.276;2023-10-19T11:17:25;9.77;;;5.28;;
39016;SDS011;24784;45.582;5.276;2023-10-19T11:19:57;7.45;;;6.57;;
39016;SDS011;24784;45.582;5.276;2023-10-19T11:22:24;7.82;;;6.00;;
39016;SDS011;24784;45.582;5.276;2023-10-19T11:24:51;10.13;;;6.32;;
39016;SDS011;24784;45.582;5.276;2023-10-19T11:29:54;9.43;;;5.13;;
39016;SDS011;24784;45.582;5.276;2023-10-19T11:32:21;5.85;;;4.03;;
39016;SDS011;24784;45.582;5.276;2023-10-19T11:34:46;8.35;;;4.22;;
39016;SDS011;24784;45.582;5.276;2023-10-19T11:37:13;9.40;;;4.30;;
39016;SDS011;24784;45.582;5.276;2023-10-19T11:39:39;6.80;;;3.72;;
39016;SDS011;24784;45.582;5.276;2023-10-19T11:42:04;7.22;;;3.88;;
39016;SDS011;24784;45.582;5.276;2023-10-19T11:44:30;7.85;;;4.40;;
39016;SDS011;24784;45.582;5.276;2023-10-19T11:46:56;6.60;;;3.90;;
39016;SDS011;24784;45.582;5.276;2023-10-19T11:49:21;7.03;;;3.90;;
39016;SDS011;24784;45.582;5.276;2023-10-19T11:51:48;8.88;;;3.33;;
39016;SDS011;24784;45.582;5.276;2023-10-19T11:54:13;5.90;;;4.03;;
39016;SDS011;24784;45.582;5.276;2023-10-19T11:56:39;7.40;;;2.80;;
39016;SDS011;24784;45.582;5.276;2023-10-19T11:59:05;7.43;;;2.90;;
39016;SDS011;24784;45.582;5.276;2023-10-19T12:01:32;5.35;;;2.75;;
39016;SDS011;24784;45.582;5.276;2023-10-19T12:03:58;6.20;;;2.88;;
39016;SDS011;24784;45.582;5.276;2023-10-19T12:06:25;7.40;;;2.67;;
39016;SDS011;24784;45.582;5.276;2023-10-19T12:08:50;7.10;;;2.92;;
39016;SDS011;24784;45.582;5.276;2023-10-19T12:11:16;21.45;;;2.92;;
39016;SDS011;24784;45.582;5.276;2023-10-19T12:13:44;6.32;;;2.65;;
39016;SDS011;24784;45.582;5.276;2023-10-19T12:16:13;6.85;;;2.60;;
39016;SDS011;24784;45.582;5.276;2023-10-19T12:18:42;8.50;;;2.90;;
39016;SDS011;24784;45.582;5.276;2023-10-19T12:21:09;5.35;;;2.50;;
39016;SDS011;24784;45.582;5.276;2023-10-19T12:23:39;7.70;;;2.50;;
39016;SDS011;24784;45.582;5.276;2023-10-19T12:26:05;8.13;;;2.72;;
39016;SDS011;24784;45.582;5.276;2023-10-19T12:28:37;10.63;;;3.22;;
39016;SDS011;24784;45.582;5.276;2023-10-19T12:31:06;4.60;;;2.70;;
39016;SDS011;24784;45.582;5.276;2023-10-19T12:33:35;6.00;;;2.20;;
39016;SDS011;24784;45.582;5.276;2023-10-19T12:36:03;11.65;;;2.75;;
39016;SDS011;24784;45.582;5.276;2023-10-19T12:38:50;10.90;;;2.58;;
39016;SDS011;24784;45.582;5.276;2023-10-19T12:41:17;7.75;;;3.42;;
39016;SDS011;24784;45.582;5.276;2023-10-19T12:43:44;8.88;;;2.72;;
39016;SDS011;24784;45.582;5.276;2023-10-19T12:46:11;6.53;;;2.30;;
39016;SDS011;24784;45.582;5.276;2023-10-19T12:48:38;8.85;;;2.85;;
39016;SDS011;24784;45.582;5.276;2023-10-19T12:51:04;8.52;;;2.75;;
39016;SDS011;24784;45.582;5.276;2023-10-19T12:53:36;13.32;;;2.95;;
39016;SDS011;24784;45.582;5.276;2023-10-19T12:56:03;10.32;;;2.65;;
39016;SDS011;24784;45.582;5.276;2023-10-19T12:58:30;7.53;;;2.63;;
39016;SDS011;24784;45.582;5.276;2023-10-19T13:00:57;12.57;;;3.10;;
39016;SDS011;24784;45.582;5.276;2023-10-19T13:03:23;7.80;;;2.60;;
39016;SDS011;24784;45.582;5.276;2023-10-19T13:05:52;12.23;;;2.78;;
39016;SDS011;24784;45.582;5.276;2023-10-19T13:08:18;9.30;;;2.60;;
39016;SDS011;24784;45.582;5.276;2023-10-19T13:10:46;6.55;;;2.70;;
39016;SDS011;24784;45.582;5.276;2023-10-19T13:13:14;6.65;;;2.50;;
39016;SDS011;24784;45.582;5.276;2023-10-19T13:15:41;14.90;;;3.13;;
39016;SDS011;24784;45.582;5.276;2023-10-19T13:18:09;6.28;;;2.00;;
39016;SDS011;24784;45.582;5.276;2023-10-19T13:20:36;9.15;;;2.83;;
39016;SDS011;24784;45.582;5.276;2023-10-19T13:23:04;15.25;;;4.22;;
39016;SDS011;24784;45.582;5.276;2023-10-19T13:25:38;10.90;;;2.65;;
39016;SDS011;24784;45.582;5.276;2023-10-19T13:28:07;8.85;;;2.67;;
39016;SDS011;24784;45.582;5.276;2023-10-19T13:30:37;7.63;;;2.30;;
39016;SDS011;24784;45.582;5.276;2023-10-19T13:33:04;11.45;;;2.28;;
39016;SDS011;24784;45.582;5.276;2023-10-19T13:35:31;12.43;;;2.70;;
39016;SDS011;24784;45.582;5.276;2023-10-19T13:37:57;4.70;;;1.98;;
39016;SDS011;24784;45.582;5.276;2023-10-19T13:40:23;8.60;;;1.90;;
39016;SDS011;24784;45.582;5.276;2023-10-19T13:42:49;7.82;;;1.95;;
39016;SDS011;24784;45.582;5.276;2023-10-19T13:45:14;7.22;;;2.22;;
39016;SDS011;24784;45.582;5.276;2023-10-19T13:47:40;7.22;;;1.83;;
39016;SDS011;24784;45.582;5.276;2023-10-19T13:50:06;12.73;;;2.92;;
39016;SDS011;24784;45.582;5.276;2023-10-19T13:52:32;4.82;;;2.05;;
39016;SDS011;24784;45.582;5.276;2023-10-19T13:55:00;6.60;;;2.00;;
39016;SDS011;24784;45.582;5.276;2023-10-19T13:57:26;9.38;;;2.10;;
39016;SDS011;24784;45.582;5.276;2023-10-19T13:59:52;8.02;;;2.13;;
39016;SDS011;24784;45.582;5.276;2023-10-19T14:02:18;6.70;;;1.90;;
39016;SDS011;24784;45.582;5.276;2023-10-19T14:04:44;8.40;;;2.28;;
39016;SDS011;24784;45.582;5.276;2023-10-19T14:07:11;7.43;;;2.05;;
39016;SDS011;24784;45.582;5.276;2023-10-19T14:09:36;7.47;;;2.00;;
39016;SDS011;24784;45.582;5.276;2023-10-19T14:12:02;6.85;;;2.22;;
39016;SDS011;24784;45.582;5.276;2023-10-19T14:14:29;9.07;;;2.35;;
39016;SDS011;24784;45.582;5.276;2023-10-19T14:16:55;8.65;;;2.50;;
39016;SDS011;24784;45.582;5.276;2023-10-19T14:19:21;9.68;;;2.70;;
39016;SDS011;24784;45.582;5.276;2023-10-19T14:21:46;5.60;;;2.15;;
39016;SDS011;24784;45.582;5.276;2023-10-19T14:24:13;8.88;;;1.92;;
39016;SDS011;24784;45.582;5.276;2023-10-19T14:26:38;8.20;;;2.42;;
39016;SDS011;24784;45.582;5.276;2023-10-19T14:29:05;13.63;;;3.13;;
39016;SDS011;24784;45.582;5.276;2023-10-19T14:31:31;10.18;;;2.30;;
39016;SDS011;24784;45.582;5.276;2023-10-19T14:33:57;8.80;;;2.58;;
39016;SDS011;24784;45.582;5.276;2023-10-19T14:36:24;11.40;;;2.72;;
39016;SDS011;24784;45.582;5.276;2023-10-19T14:38:50;9.77;;;2.25;;
39016;SDS011;24784;45.582;5.276;2023-10-19T14:41:15;9.80;;;2.42;;
39016;SDS011;24784;45.582;5.276;2023-10-19T14:43:41;10.63;;;2.58;;
39016;SDS011;24784;45.582;5.276;2023-10-19T14:46:07;10.57;;;2.70;;
39016;SDS011;24784;45.582;5.276;2023-10-19T14:48:32;16.38;;;3.10;;
39016;SDS011;24784;45.582;5.276;2023-10-19T14:51:00;10.82;;;2.40;;
39016;SDS011;24784;45.582;5.276;2023-10-19T14:53:26;10.85;;;2.50;;
39016;SDS011;24784;45.582;5.276;2023-10-19T14:55:54;10.32;;;2.88;;
39016;SDS011;24784;45.582;5.276;2023-10-19T14:58:21;8.05;;;2.33;;
39016;SDS011;24784;45.582;5.276;2023-10-19T15:00:47;6.70;;;2.10;;
39016;SDS011;24784;45.582;5.276;2023-10-19T15:03:20;9.63;;;2.70;;
39016;SDS011;24784;45.582;5.276;2023-10-19T15:05:49;6.32;;;2.60;;
39016;SDS011;24784;45.582;5.276;2023-10-19T15:08:21;8.18;;;2.25;;
39016;SDS011;24784;45.582;5.276;2023-10-19T15:10:52;12.30;;;2.25;;
39016;SDS011;24784;45.582;5.276;2023-10-19T15:13:19;9.65;;;2.70;;
39016;SDS011;24784;45.582;5.276;2023-10-19T15:15:45;11.50;;;2.30;;
39016;SDS011;24784;45.582;5.276;2023-10-19T15:18:10;8.93;;;3.08;;
39016;SDS011;24784;45.582;5.276;2023-10-19T15:20:36;7.97;;;2.20;;
39016;SDS011;24784;45.582;5.276;2023-10-19T15:23:01;14.68;;;3.08;;
39016;SDS011;24784;45.582;5.276;2023-10-19T15:25:28;11.10;;;2.30;;
39016;SDS011;24784;45.582;5.276;2023-10-19T15:27:54;12.07;;;2.15;;
39016;SDS011;24784;45.582;5.276;2023-10-19T15:30:20;6.70;;;2.05;;
39016;SDS011;24784;45.582;5.276;2023-10-19T15:32:47;6.72;;;2.28;;
39016;SDS011;24784;45.582;5.276;2023-10-19T15:35:14;14.57;;;2.58;;
39016;SDS011;24784;45.582;5.276;2023-10-19T15:37:41;8.02;;;2.08;;
39016;SDS011;24784;45.582;5.276;2023-10-19T15:40:08;11.07;;;2.20;;
39016;SDS011;24784;45.582;5.276;2023-10-19T15:42:40;8.10;;;1.45;;
39016;SDS011;24784;45.582;5.276;2023-10-19T15:45:10;6.68;;;2.75;;
39016;SDS011;24784;45.582;5.276;2023-10-19T15:47:37;9.73;;;3.70;;
39016;SDS011;24784;45.582;5.276;2023-10-19T15:50:06;12.02;;;6.50;;
39016;SDS011;24784;45.582;5.276;2023-10-19T15:52:37;11.13;;;3.85;;
39016;SDS011;24784;45.582;5.276;2023-10-19T15:55:08;7.45;;;2.20;;
39016;SDS011;24784;45.582;5.276;2023-10-19T15:57:35;21.98;;;10.15;;
39016;SDS011;24784;45.582;5.276;2023-10-19T16:00:01;21.50;;;8.95;;
39016;SDS011;24784;45.582;5.276;2023-10-19T16:02:27;9.93;;;2.40;;
39016;SDS011;24784;45.582;5.276;2023-10-19T16:04:52;19.10;;;2.30;;
39016;SDS011;24784;45.582;5.276;2023-10-19T16:07:18;6.75;;;1.77;;
39016;SDS011;24784;45.582;5.276;2023-10-19T16:09:44;13.15;;;1.98;;
39016;SDS011;24784;45.582;5.276;2023-10-19T16:12:10;12.25;;;2.80;;
39016;SDS011;24784;45.582;5.276;2023-10-19T16:14:36;7.72;;;2.05;;
39016;SDS011;24784;45.582;5.276;2023-10-19T16:17:03;4.13;;;1.30;;
39016;SDS011;24784;45.582;5.276;2023-10-19T16:19:29;7.97;;;2.00;;
39016;SDS011;24784;45.582;5.276;2023-10-19T16:21:55;6.93;;;1.88;;
39016;SDS011;24784;45.582;5.276;2023-10-19T16:24:22;8.27;;;1.80;;
39016;SDS011;24784;45.582;5.276;2023-10-19T16:26:49;10.13;;;1.80;;
39016;SDS011;24784;45.582;5.276;2023-10-19T16:29:15;9.57;;;1.63;;
39016;SDS011;24784;45.582;5.276;2023-10-19T16:31:45;6.65;;;1.90;;
39016;SDS011;24784;45.582;5.276;2023-10-19T16:34:12;10.40;;;1.98;;
39016;SDS011;24784;45.582;5.276;2023-10-19T16:36:38;6.00;;;1.50;;
39016;SDS011;24784;45.582;5.276;2023-10-19T16:39:05;10.07;;;2.00;;
39016;SDS011;24784;45.582;5.276;2023-10-19T16:41:49;7.00;;;1.90;;
39016;SDS011;24784;45.582;5.276;2023-10-19T16:44:17;6.18;;;1.50;;
39016;SDS011;24784;45.582;5.276;2023-10-19T16:46:44;10.30;;;2.83;;
39016;SDS011;24784;45.582;5.276;2023-10-19T16:49:09;6.68;;;2.00;;
39016;SDS011;24784;45.582;5.276;2023-10-19T16:51:35;12.90;;;1.90;;
39016;SDS011;24784;45.582;5.276;2023-10-19T16:54:05;10.25;;;2.03;;
39016;SDS011;24784;45.582;5.276;2023-10-19T16:56:31;7.70;;;2.08;;